Time;durP1;ratioP1;P1;durP2;ratioP2;P2;SDS_P1;SDS_P2;PMS_P1;PMS_P2;Temp;Humidity;BMP_temperature;BMP_pressure;BME280_temperature;BME280_humidity;BME280_pressure;Samples;Min_cycle;Max_cycle;Signal;HPM_P1;HPM_P2
2022/11/08 00:01:32;;;;;;;34.70;16.05;;;;;;;;;;4923380;29;20039;-76
2022/11/08 00:04:02;;;;;;;33.45;14.23;;;;;;;;;;4917249;29;20070;-78
2022/11/08 00:14:42;;;;;;;44.95;19.13;;;;;;;;;;4898100;29;20134;-77
2022/11/08 00:17:09;;;;;;;32.42;14.50;;;;;;;;;;4897770;29;20029;-76
2022/11/08 00:19:34;;;;;;;52.25;20.38;;;;;;;;;;4898567;29;20037;-76
2022/11/08 00:22:00;;;;;;;40.35;18.90;;;;;;;;;;4898321;29;20032;-76
2022/11/08 00:24:26;;;;;;;47.88;19.55;;;;;;;;;;4897573;29;20051;-76
2022/11/08 00:26:52;;;;;;;42.03;18.80;;;;;;;;;;4898404;29;20045;-74
2022/11/08 00:29:18;;;;;;;41.97;18.42;;;;;;;;;;4898481;29;20040;-77
2022/11/08 00:31:44;;;;;;;44.03;19.60;;;;;;;;;;4896424;29;20474;-75
2022/11/08 00:34:10;;;;;;;65.07;26.60;;;;;;;;;;4895717;29;20076;-78
2022/11/08 00:36:36;;;;;;;40.67;16.05;;;;;;;;;;4898287;29;20041;-76
2022/11/08 00:39:02;;;;;;;40.33;17.25;;;;;;;;;;4912505;29;20064;-77
2022/11/08 00:41:28;;;;;;;65.85;24.33;;;;;;;;;;4897009;29;20033;-76
2022/11/08 00:43:53;;;;;;;48.15;20.63;;;;;;;;;;4896976;29;20052;-77
2022/11/08 00:46:19;;;;;;;42.65;19.05;;;;;;;;;;4879812;29;20041;-76
2022/11/08 00:48:45;;;;;;;54.10;20.77;;;;;;;;;;4909561;29;20148;-76
2022/11/08 00:51:11;;;;;;;54.42;21.73;;;;;;;;;;4898559;29;20040;-76
2022/11/08 00:53:37;;;;;;;43.90;19.83;;;;;;;;;;4914657;29;20123;-76
2022/11/08 00:56:04;;;;;;;42.53;19.05;;;;;;;;;;4913944;29;20104;-76
2022/11/08 00:58:30;;;;;;;49.05;19.48;;;;;;;;;;4914185;29;20452;-77
2022/11/08 01:00:56;;;;;;;62.92;25.42;;;;;;;;;;4914261;29;20059;-75
2022/11/08 01:03:22;;;;;;;48.42;20.13;;;;;;;;;;4913467;29;20040;-74
2022/11/08 01:05:49;;;;;;;50.67;21.55;;;;;;;;;;4914144;29;20040;-75
2022/11/08 01:08:15;;;;;;;38.70;17.95;;;;;;;;;;4913721;29;20042;-75
2022/11/08 01:10:42;;;;;;;34.42;17.33;;;;;;;;;;4914174;29;20118;-75
2022/11/08 01:13:08;;;;;;;48.45;21.15;;;;;;;;;;4913552;29;20051;-75
2022/11/08 01:15:34;;;;;;;45.63;19.17;;;;;;;;;;4915262;29;20035;-75
2022/11/08 01:18:01;;;;;;;34.42;15.10;;;;;;;;;;4914761;29;20063;-74
2022/11/08 01:20:27;;;;;;;49.10;20.13;;;;;;;;;;4914934;29;20036;-76
2022/11/08 01:22:53;;;;;;;56.50;20.02;;;;;;;;;;4898323;29;20130;-78
2022/11/08 01:25:18;;;;;;;46.83;19.50;;;;;;;;;;4913440;29;20345;-77
2022/11/08 01:27:44;;;;;;;58.72;24.45;;;;;;;;;;4914019;29;20593;-77
2022/11/08 01:30:10;;;;;;;56.95;23.05;;;;;;;;;;4913369;29;20065;-77
2022/11/08 01:32:36;;;;;;;61.65;22.63;;;;;;;;;;4915273;29;20072;-77
2022/11/08 01:35:03;;;;;;;68.90;25.50;;;;;;;;;;4915079;29;20040;-76
2022/11/08 01:37:29;;;;;;;58.17;23.60;;;;;;;;;;4915161;29;20062;-76
2022/11/08 01:39:54;;;;;;;65.38;26.25;;;;;;;;;;4915254;29;20044;-77
2022/11/08 01:42:29;;;;;;;46.60;19.13;;;;;;;;;;4913051;29;20036;-76
2022/11/08 01:44:59;;;;;;;80.75;30.85;;;;;;;;;;4914817;29;20050;-75
2022/11/08 01:47:25;;;;;;;48.00;18.05;;;;;;;;;;4914526;29;20036;-75
2022/11/08 01:49:51;;;;;;;49.53;18.67;;;;;;;;;;4914744;29;20036;-77
2022/11/08 01:52:22;;;;;;;54.72;21.65;;;;;;;;;;4914441;29;20028;-76
2022/11/08 01:54:51;;;;;;;53.75;22.20;;;;;;;;;;4913471;29;20048;-77
2022/11/08 01:57:18;;;;;;;60.83;22.58;;;;;;;;;;4913342;29;20040;-77
2022/11/08 01:59:44;;;;;;;42.45;15.77;;;;;;;;;;4900620;29;20107;-77
2022/11/08 02:02:10;;;;;;;51.42;18.73;;;;;;;;;;4914327;29;20051;-77
2022/11/08 02:04:36;;;;;;;35.63;15.98;;;;;;;;;;4913196;29;20051;-77
2022/11/08 02:07:03;;;;;;;56.22;22.40;;;;;;;;;;4912267;29;20046;-77
2022/11/08 02:09:29;;;;;;;61.63;21.85;;;;;;;;;;4914271;29;20115;-76
2022/11/08 02:11:54;;;;;;;48.20;18.50;;;;;;;;;;4898186;29;20056;-76
2022/11/08 02:14:20;;;;;;;54.78;19.17;;;;;;;;;;4897438;29;20044;-75
2022/11/08 02:16:46;;;;;;;51.63;20.85;;;;;;;;;;4897467;29;20047;-77
2022/11/08 02:19:15;;;;;;;48.80;19.23;;;;;;;;;;4913798;29;20043;-78
2022/11/08 02:21:41;;;;;;;55.38;23.33;;;;;;;;;;4912633;29;20032;-76
2022/11/08 02:24:08;;;;;;;54.60;22.42;;;;;;;;;;4913580;29;20048;-77
2022/11/08 02:26:34;;;;;;;59.28;22.10;;;;;;;;;;4914002;29;20505;-77
2022/11/08 02:29:19;;;;;;;50.83;20.42;;;;;;;;;;4912027;29;20032;-76
2022/11/08 02:31:45;;;;;;;52.53;20.70;;;;;;;;;;4913957;29;20095;-78
2022/11/08 02:34:10;;;;;;;47.45;19.17;;;;;;;;;;4912717;29;20465;-78
2022/11/08 02:36:36;;;;;;;51.53;19.95;;;;;;;;;;4914141;29;20072;-78
2022/11/08 02:39:02;;;;;;;47.03;19.30;;;;;;;;;;4913515;29;20036;-77
2022/11/08 02:41:28;;;;;;;62.20;22.27;;;;;;;;;;4912628;29;20087;-77
2022/11/08 02:43:54;;;;;;;42.95;18.13;;;;;;;;;;4913516;29;20044;-77
2022/11/08 02:46:20;;;;;;;55.75;21.48;;;;;;;;;;4912075;29;20440;-77
2022/11/08 02:48:45;;;;;;;41.55;17.23;;;;;;;;;;4912124;29;20044;-79
2022/11/08 02:51:11;;;;;;;59.92;22.70;;;;;;;;;;4927962;29;20091;-77
2022/11/08 02:53:37;;;;;;;47.47;19.23;;;;;;;;;;4912283;29;20040;-77
2022/11/08 02:56:03;;;;;;;45.35;19.00;;;;;;;;;;4916274;29;20444;-77
2022/11/08 02:58:29;;;;;;;52.42;19.35;;;;;;;;;;4914171;29;20516;-77
2022/11/08 03:00:55;;;;;;;46.83;19.98;;;;;;;;;;4910839;29;20036;-77
2022/11/08 03:03:21;;;;;;;28.48;14.05;;;;;;;;;;4912276;29;20450;-76
2022/11/08 03:05:47;;;;;;;38.50;17.40;;;;;;;;;;4911732;29;20529;-77
2022/11/08 03:08:13;;;;;;;44.15;21.25;;;;;;;;;;4912856;29;20036;-79
2022/11/08 03:10:39;;;;;;;40.38;17.23;;;;;;;;;;4911563;29;20032;-78
2022/11/08 03:13:05;;;;;;;49.25;22.83;;;;;;;;;;4912647;29;20504;-78
2022/11/08 03:15:31;;;;;;;53.65;21.58;;;;;;;;;;4912943;29;20087;-78
2022/11/08 03:17:57;;;;;;;37.53;18.25;;;;;;;;;;4912434;29;20126;-79
2022/11/08 03:20:23;;;;;;;38.78;18.48;;;;;;;;;;4913144;29;20042;-78
2022/11/08 03:22:55;;;;;;;44.38;19.90;;;;;;;;;;4880937;29;20091;-79
2022/11/08 03:25:21;;;;;;;40.90;16.92;;;;;;;;;;4912636;29;20116;-77
2022/11/08 03:27:47;;;;;;;49.00;20.35;;;;;;;;;;4912156;29;20505;-78
2022/11/08 03:30:13;;;;;;;49.92;20.30;;;;;;;;;;4911646;29;20050;-78
2022/11/08 03:32:40;;;;;;;48.67;20.08;;;;;;;;;;4912024;29;20028;-78
2022/11/08 03:35:06;;;;;;;45.63;20.98;;;;;;;;;;4912753;29;20296;-79
2022/11/08 03:37:32;;;;;;;42.40;18.70;;;;;;;;;;4913236;29;20032;-78
2022/11/08 03:39:58;;;;;;;52.67;19.60;;;;;;;;;;4911854;29;20032;-78
2022/11/08 03:42:24;;;;;;;60.95;25.02;;;;;;;;;;4912187;29;20410;-78
2022/11/08 03:44:50;;;;;;;43.72;19.15;;;;;;;;;;4911624;29;20532;-79
2022/11/08 03:47:16;;;;;;;41.88;18.67;;;;;;;;;;4911346;29;20079;-79
2022/11/08 03:49:42;;;;;;;57.22;22.30;;;;;;;;;;4927325;29;20037;-78
2022/11/08 03:52:08;;;;;;;58.28;23.95;;;;;;;;;;4911462;29;20103;-78
2022/11/08 03:54:33;;;;;;;47.83;20.73;;;;;;;;;;4911575;29;20421;-79
2022/11/08 03:56:59;;;;;;;45.85;20.25;;;;;;;;;;4911707;29;20036;-77
2022/11/08 03:59:25;;;;;;;65.43;26.00;;;;;;;;;;4912509;29;20044;-78
2022/11/08 04:01:51;;;;;;;54.60;19.02;;;;;;;;;;4912860;29;20048;-78
2022/11/08 04:04:17;;;;;;;67.80;25.63;;;;;;;;;;4912442;29;20059;-79
2022/11/08 04:06:43;;;;;;;53.92;20.30;;;;;;;;;;4912919;29;20043;-79
2022/11/08 04:09:09;;;;;;;54.38;20.67;;;;;;;;;;4911072;29;20040;-79
2022/11/08 04:17:03;;;;;;;63.67;22.40;;;;;;;;;;4919168;29;20036;-79
2022/11/08 04:22:14;;;;;;;55.72;19.88;;;;;;;;;;4914284;29;20060;-78
2022/11/08 04:24:40;;;;;;;59.05;20.92;;;;;;;;;;4914797;29;20113;-79
2022/11/08 04:27:05;;;;;;;61.72;22.05;;;;;;;;;;4920186;29;20074;-77
2022/11/08 04:29:31;;;;;;;70.28;21.70;;;;;;;;;;4929793;29;20095;-77
2022/11/08 04:31:57;;;;;;;79.35;25.00;;;;;;;;;;4930424;29;20516;-77
2022/11/08 04:34:23;;;;;;;76.35;24.10;;;;;;;;;;4926569;29;20570;-78
2022/11/08 04:36:49;;;;;;;54.08;20.80;;;;;;;;;;4915382;29;20039;-78
2022/11/08 04:39:15;;;;;;;80.75;25.08;;;;;;;;;;4916174;29;20051;-78
2022/11/08 04:41:41;;;;;;;88.90;27.90;;;;;;;;;;4899690;29;20055;-77
2022/11/08 04:44:07;;;;;;;61.72;19.67;;;;;;;;;;4898860;29;20508;-78
2022/11/08 04:46:33;;;;;;;68.85;23.98;;;;;;;;;;4916387;29;20040;-79
2022/11/08 04:48:59;;;;;;;73.65;22.20;;;;;;;;;;4916552;29;20040;-78
2022/11/08 04:51:26;;;;;;;59.33;19.08;;;;;;;;;;4898953;29;20043;-80
2022/11/08 04:53:53;;;;;;;73.60;21.60;;;;;;;;;;4915651;29;20036;-81
2022/11/08 04:56:19;;;;;;;75.90;26.88;;;;;;;;;;4917318;29;20417;-82
2022/11/08 04:58:55;;;;;;;71.78;24.40;;;;;;;;;;4920618;29;20044;-81
2022/11/08 05:01:23;;;;;;;72.00;22.70;;;;;;;;;;4927116;29;20062;-83
2022/11/08 05:03:49;;;;;;;69.57;23.00;;;;;;;;;;4935348;29;20083;-85
2022/11/08 05:06:16;;;;;;;67.63;22.15;;;;;;;;;;4940970;29;20024;-87
2022/11/08 09:27:53;;;;;;;21.65;13.20;;;;;;;;;;4910892;29;20056;-76
2022/11/08 09:30:19;;;;;;;20.25;11.88;;;;;;;;;;4912471;29;20130;-75
2022/11/08 09:32:45;;;;;;;23.00;15.63;;;;;;;;;;4911992;29;20176;-73
2022/11/08 09:35:11;;;;;;;25.48;15.90;;;;;;;;;;4912481;29;20096;-74
2022/11/08 09:37:36;;;;;;;32.40;17.10;;;;;;;;;;4911253;29;20028;-74
2022/11/08 09:40:02;;;;;;;18.80;10.23;;;;;;;;;;4912383;29;20558;-74
2022/11/08 09:42:44;;;;;;;36.15;20.85;;;;;;;;;;4910338;29;20044;-74
2022/11/08 09:45:15;;;;;;;32.58;17.13;;;;;;;;;;4911839;29;20671;-75
2022/11/08 09:47:41;;;;;;;37.13;21.02;;;;;;;;;;4912634;29;20035;-74
2022/11/08 09:50:17;;;;;;;28.70;17.50;;;;;;;;;;4911597;29;20863;-74
2022/11/08 09:52:44;;;;;;;13.95;9.77;;;;;;;;;;4904678;29;20036;-74
2022/11/08 09:55:30;;;;;;;30.67;18.95;;;;;;;;;;4912796;29;20509;-76
2022/11/08 09:58:23;;;;;;;25.17;14.68;;;;;;;;;;4883828;29;20037;-76
2022/11/08 10:00:50;;;;;;;30.75;16.77;;;;;;;;;;4908663;29;20048;-74
2022/11/08 10:03:16;;;;;;;35.83;19.88;;;;;;;;;;4911962;29;20040;-76
2022/11/08 10:05:43;;;;;;;28.52;17.00;;;;;;;;;;4911570;29;20583;-74
2022/11/08 10:08:10;;;;;;;15.07;9.85;;;;;;;;;;4910210;29;20126;-74
2022/11/08 10:10:36;;;;;;;28.65;15.13;;;;;;;;;;4908672;29;20153;-75
2022/11/08 10:13:02;;;;;;;19.65;12.88;;;;;;;;;;4910915;29;20033;-75
2022/11/08 10:15:36;;;;;;;25.05;15.55;;;;;;;;;;4909544;29;20040;-75
2022/11/08 10:18:20;;;;;;;24.50;14.73;;;;;;;;;;4910553;29;20424;-75
2022/11/08 10:20:49;;;;;;;28.55;14.70;;;;;;;;;;4909946;29;20068;-75
2022/11/08 10:23:22;;;;;;;16.95;11.73;;;;;;;;;;4911298;29;20036;-75
2022/11/08 10:25:55;;;;;;;23.95;12.70;;;;;;;;;;4909617;29;20048;-77
2022/11/08 10:28:23;;;;;;;20.80;12.43;;;;;;;;;;4908473;29;20036;-75
2022/11/08 10:30:50;;;;;;;19.85;13.18;;;;;;;;;;4909853;29;20058;-73
2022/11/08 10:33:36;;;;;;;14.27;10.05;;;;;;;;;;4909596;29;20593;-75
2022/11/08 10:36:05;;;;;;;30.20;14.07;;;;;;;;;;4897462;29;20131;-75
2022/11/08 10:38:33;;;;;;;18.88;12.93;;;;;;;;;;4878715;29;20036;-76
2022/11/08 10:41:00;;;;;;;21.70;11.95;;;;;;;;;;4910206;29;20036;-76
2022/11/08 10:43:34;;;;;;;19.15;13.68;;;;;;;;;;4878595;29;20055;-76
2022/11/08 10:46:00;;;;;;;22.42;12.57;;;;;;;;;;4918741;29;20048;-75
2022/11/08 10:48:25;;;;;;;22.58;14.35;;;;;;;;;;4910970;29;20293;-75
2022/11/08 10:50:51;;;;;;;25.15;13.02;;;;;;;;;;4910282;29;20413;-73
2022/11/08 10:53:20;;;;;;;21.50;13.43;;;;;;;;;;4894010;29;20064;-76
2022/11/08 10:55:57;;;;;;;24.00;13.48;;;;;;;;;;4910927;29;20505;-76
2022/11/08 10:58:26;;;;;;;24.52;13.73;;;;;;;;;;4910690;29;20196;-75
2022/11/08 11:00:59;;;;;;;21.45;13.43;;;;;;;;;;4910729;29;20044;-76
2022/11/08 11:03:28;;;;;;;19.17;10.75;;;;;;;;;;4909055;29;20028;-81
2022/11/08 11:05:57;;;;;;;20.15;12.27;;;;;;;;;;4896825;29;20106;-78
2022/11/08 11:08:24;;;;;;;12.48;8.55;;;;;;;;;;4911075;29;20509;-80
2022/11/08 11:10:50;;;;;;;20.67;11.43;;;;;;;;;;4907074;29;20468;-78
2022/11/08 11:13:17;;;;;;;19.30;12.93;;;;;;;;;;4909709;29;20032;-79
2022/11/08 11:15:46;;;;;;;18.05;11.65;;;;;;;;;;4911252;29;20102;-80
2022/11/08 11:18:17;;;;;;;14.55;9.68;;;;;;;;;;4911476;29;20035;-79
2022/11/08 11:20:43;;;;;;;16.80;12.47;;;;;;;;;;4906507;29;20036;-80
2022/11/08 11:23:10;;;;;;;15.90;9.57;;;;;;;;;;4909310;29;21228;-79
2022/11/08 11:25:36;;;;;;;22.50;11.93;;;;;;;;;;4910854;29;20539;-79
2022/11/08 11:28:02;;;;;;;22.15;12.57;;;;;;;;;;4878488;29;20032;-78
2022/11/08 11:30:37;;;;;;;23.75;13.80;;;;;;;;;;4893316;29;20044;-79
2022/11/08 11:33:23;;;;;;;19.10;10.23;;;;;;;;;;4893901;29;20039;-78
2022/11/08 11:35:53;;;;;;;13.50;10.85;;;;;;;;;;4912524;29;20058;-78
2022/11/08 11:38:35;;;;;;;17.35;12.15;;;;;;;;;;4894045;29;20040;-77
2022/11/08 11:41:00;;;;;;;;;;;;;;;;;;4910255;29;20040;-75
2022/11/08 11:43:34;;;;;;;21.45;13.25;;;;;;;;;;4877463;29;19934;-76
2022/11/08 11:46:00;;;;;;;16.38;11.27;;;;;;;;;;4909557;29;20541;-76
2022/11/08 11:48:27;;;;;;;13.07;10.18;;;;;;;;;;4893388;29;20067;-77
2022/11/08 11:50:53;;;;;;;23.73;13.23;;;;;;;;;;4878654;29;20500;-77
2022/11/08 11:53:26;;;;;;;16.15;12.63;;;;;;;;;;4911113;29;20020;-75
2022/11/08 11:56:11;;;;;;;9.60;7.45;;;;;;;;;;4911324;29;20040;-75
2022/11/08 11:58:37;;;;;;;14.05;10.45;;;;;;;;;;4910727;29;20024;-77
2022/11/08 12:01:06;;;;;;;15.55;10.43;;;;;;;;;;4904160;29;20040;-77
2022/11/08 12:03:43;;;;;;;12.50;8.95;;;;;;;;;;4906963;29;20032;-78
2022/11/08 12:06:10;;;;;;;14.98;11.57;;;;;;;;;;4908330;29;20055;-77
2022/11/08 12:08:41;;;;;;;13.57;11.38;;;;;;;;;;4910346;29;20051;-76
2022/11/08 12:11:28;;;;;;;19.77;12.60;;;;;;;;;;4925469;29;20040;-77
2022/11/08 12:14:05;;;;;;;15.73;11.55;;;;;;;;;;4930173;29;20036;-77
2022/11/08 12:16:57;;;;;;;14.05;9.77;;;;;;;;;;4930346;29;20051;-77
2022/11/08 12:19:41;;;;;;;7.03;6.25;;;;;;;;;;4911818;29;20055;-76
2022/11/08 12:22:23;;;;;;;18.02;9.20;;;;;;;;;;4909272;29;20496;-76
2022/11/08 12:24:51;;;;;;;14.13;10.73;;;;;;;;;;4909982;29;20452;-77
2022/11/08 12:27:17;;;;;;;12.40;9.77;;;;;;;;;;4908500;29;20120;-79
2022/11/08 12:30:04;;;;;;;14.93;10.70;;;;;;;;;;4908672;29;20044;-76
2022/11/08 12:32:46;;;;;;;14.40;9.38;;;;;;;;;;4906080;29;20048;-74
2022/11/08 12:35:31;;;;;;;11.15;9.95;;;;;;;;;;4907749;29;20122;-75
2022/11/08 12:38:10;;;;;;;12.20;8.52;;;;;;;;;;4910684;29;20123;-77
2022/11/08 12:40:44;;;;;;;10.05;8.65;;;;;;;;;;4911547;29;20029;-77
2022/11/08 12:43:16;;;;;;;9.70;8.48;;;;;;;;;;4907032;29;20047;-77
2022/11/08 12:45:42;;;;;;;16.85;10.93;;;;;;;;;;4911893;29;20040;-77
2022/11/08 12:48:08;;;;;;;10.48;9.35;;;;;;;;;;4913734;29;20052;-78
2022/11/08 12:50:44;;;;;;;16.35;10.07;;;;;;;;;;4915187;29;20028;-78
2022/11/08 12:53:10;;;;;;;14.02;8.77;;;;;;;;;;4917316;29;20048;-75
2022/11/08 12:55:37;;;;;;;10.05;9.05;;;;;;;;;;4915986;29;20040;-76
2022/11/08 12:58:23;;;;;;;11.57;7.43;;;;;;;;;;4916121;29;20040;-78
2022/11/08 13:00:52;;;;;;;12.20;9.93;;;;;;;;;;4902110;29;20295;-76
2022/11/08 13:03:41;;;;;;;10.77;7.10;;;;;;;;;;4897722;29;20059;-78
2022/11/08 13:06:17;;;;;;;6.38;5.53;;;;;;;;;;4896352;29;20131;-77
2022/11/08 13:08:42;;;;;;;12.07;7.63;;;;;;;;;;4911367;29;20028;-77
2022/11/08 13:11:11;;;;;;;8.80;7.72;;;;;;;;;;4915775;29;20425;-78
2022/11/08 13:13:37;;;;;;;8.02;7.32;;;;;;;;;;4915957;29;20040;-78
2022/11/08 13:16:06;;;;;;;8.57;7.40;;;;;;;;;;4914987;29;20094;-77
2022/11/08 13:18:33;;;;;;;7.60;6.85;;;;;;;;;;4916618;29;20051;-76
2022/11/08 13:20:58;;;;;;;8.15;7.35;;;;;;;;;;4916136;29;20559;-78
2022/11/08 13:23:26;;;;;;;6.85;5.95;;;;;;;;;;4896264;29;20036;-76
2022/11/08 13:25:52;;;;;;;8.82;7.10;;;;;;;;;;4895944;29;20274;-75
2022/11/08 13:28:37;;;;;;;7.65;6.95;;;;;;;;;;4912292;29;20500;-75
2022/11/08 13:31:12;;;;;;;7.25;6.55;;;;;;;;;;4880878;29;20090;-75
2022/11/08 13:33:40;;;;;;;8.40;7.30;;;;;;;;;;4913212;29;20472;-75
2022/11/08 13:36:13;;;;;;;7.20;6.50;;;;;;;;;;4912587;29;20453;-75
2022/11/08 13:38:45;;;;;;;9.52;8.55;;;;;;;;;;4916889;29;20036;-75
2022/11/08 13:41:14;;;;;;;7.22;5.85;;;;;;;;;;4913044;29;20043;-75
2022/11/08 13:43:41;;;;;;;7.57;6.78;;;;;;;;;;4935155;29;20036;-75
2022/11/08 13:46:24;;;;;;;8.18;7.38;;;;;;;;;;4913135;29;20051;-74
2022/11/08 13:49:10;;;;;;;5.55;5.15;;;;;;;;;;4896867;29;20032;-75
2022/11/08 13:51:37;;;;;;;7.93;6.90;;;;;;;;;;4907752;29;20110;-74
2022/11/08 13:54:35;;;;;;;7.30;6.60;;;;;;;;;;4924372;29;20040;-76
2022/11/08 13:57:01;;;;;;;6.85;6.18;;;;;;;;;;4890387;29;20512;-79
2022/11/08 13:59:30;;;;;;;8.23;7.43;;;;;;;;;;4912369;29;20035;-78
2022/11/08 14:01:57;;;;;;;7.50;6.70;;;;;;;;;;4910846;29;20040;-78
2022/11/08 14:04:24;;;;;;;6.55;5.80;;;;;;;;;;4923260;29;20048;-77
2022/11/08 14:07:07;;;;;;;6.47;5.88;;;;;;;;;;4903672;29;20036;-78
2022/11/08 14:09:41;;;;;;;8.63;5.97;;;;;;;;;;4912897;29;20028;-78
2022/11/08 14:12:15;;;;;;;7.00;6.30;;;;;;;;;;4909525;29;20032;-79
2022/11/08 14:14:42;;;;;;;6.57;4.97;;;;;;;;;;4911437;29;20076;-77
2022/11/08 14:17:11;;;;;;;5.78;5.28;;;;;;;;;;4911130;29;20040;-78
2022/11/08 14:19:38;;;;;;;4.47;3.97;;;;;;;;;;4912036;29;20036;-79
2022/11/08 14:22:10;;;;;;;7.28;6.60;;;;;;;;;;4909160;29;20028;-77
2022/11/08 14:24:36;;;;;;;6.40;5.78;;;;;;;;;;4893953;29;20046;-77
2022/11/08 14:27:02;;;;;;;4.03;3.72;;;;;;;;;;4912550;29;20151;-78
2022/11/08 14:29:29;;;;;;;7.57;6.88;;;;;;;;;;4912560;29;20595;-77
2022/11/08 14:32:05;;;;;;;7.60;6.80;;;;;;;;;;4929314;29;20108;-78
2022/11/08 14:34:32;;;;;;;7.63;6.00;;;;;;;;;;4914311;29;20039;-77
2022/11/08 14:36:58;;;;;;;7.53;6.93;;;;;;;;;;4917632;29;20039;-76
2022/11/08 14:39:34;;;;;;;4.95;4.47;;;;;;;;;;4913797;29;20035;-76
2022/11/08 14:42:01;;;;;;;7.18;6.53;;;;;;;;;;4903413;29;20090;-76
2022/11/08 14:44:28;;;;;;;5.65;5.15;;;;;;;;;;4888186;29;20526;-77
2022/11/08 14:46:54;;;;;;;6.53;6.03;;;;;;;;;;4911017;29;20081;-76
2022/11/08 14:49:21;;;;;;;6.00;5.35;;;;;;;;;;4912513;29;20036;-76
2022/11/08 14:51:46;;;;;;;8.18;7.00;;;;;;;;;;4908989;29;20048;-77
2022/11/08 14:54:16;;;;;;;7.63;6.93;;;;;;;;;;4887607;29;20055;-77
2022/11/08 14:56:43;;;;;;;6.00;5.47;;;;;;;;;;4910234;29;20139;-77
2022/11/08 14:59:09;;;;;;;5.80;5.30;;;;;;;;;;4910551;29;20036;-76
2022/11/08 15:01:35;;;;;;;6.93;6.30;;;;;;;;;;4910278;29;20528;-76
2022/11/08 15:04:02;;;;;;;7.40;6.70;;;;;;;;;;4893514;29;20033;-75
2022/11/08 15:06:29;;;;;;;7.72;6.95;;;;;;;;;;4913909;29;20094;-77
2022/11/08 15:08:55;;;;;;;8.00;7.28;;;;;;;;;;4911154;29;20059;-76
2022/11/08 15:11:27;;;;;;;6.63;6.03;;;;;;;;;;4910430;29;20036;-77
2022/11/08 15:13:54;;;;;;;5.90;5.15;;;;;;;;;;4910643;29;20040;-75
2022/11/08 15:16:20;;;;;;;9.30;6.80;;;;;;;;;;4910390;29;20032;-75
2022/11/08 15:18:46;;;;;;;7.22;6.53;;;;;;;;;;4909476;29;20036;-75
2022/11/08 15:21:14;;;;;;;5.43;5.03;;;;;;;;;;4911553;29;20075;-75
2022/11/08 15:23:41;;;;;;;8.18;6.63;;;;;;;;;;4918168;29;20047;-75
2022/11/08 15:26:17;;;;;;;4.97;4.25;;;;;;;;;;4917976;29;20056;-75
2022/11/08 15:28:52;;;;;;;6.53;5.70;;;;;;;;;;4926208;29;20067;-77
2022/11/08 15:31:17;;;;;;;7.55;6.68;;;;;;;;;;4922997;29;20456;-75
2022/11/08 15:33:43;;;;;;;8.23;7.40;;;;;;;;;;4927023;29;20038;-74
2022/11/08 15:36:10;;;;;;;7.82;7.18;;;;;;;;;;4922722;29;20374;-74
2022/11/08 15:38:38;;;;;;;6.60;5.85;;;;;;;;;;4924057;29;20390;-75
2022/11/08 15:41:04;;;;;;;8.38;7.57;;;;;;;;;;4936653;29;20035;-75
2022/11/08 15:43:30;;;;;;;8.68;7.50;;;;;;;;;;4919959;29;20099;-75
2022/11/08 15:45:56;;;;;;;9.23;8.23;;;;;;;;;;4908786;29;20043;-75
2022/11/08 15:48:22;;;;;;;9.50;7.47;;;;;;;;;;4910818;29;20040;-77
2022/11/08 15:50:48;;;;;;;7.65;6.93;;;;;;;;;;4910281;29;20036;-77
2022/11/08 15:53:15;;;;;;;7.78;7.07;;;;;;;;;;4926079;29;20036;-76
2022/11/08 15:55:40;;;;;;;8.52;7.82;;;;;;;;;;4911823;29;20035;-77
2022/11/08 15:58:12;;;;;;;13.02;9.07;;;;;;;;;;4910973;29;20140;-81
2022/11/08 16:00:42;;;;;;;9.30;8.48;;;;;;;;;;4912288;29;20392;-80
2022/11/08 16:03:08;;;;;;;9.40;8.52;;;;;;;;;;4890115;29;20039;-81
2022/11/08 16:05:34;;;;;;;11.70;8.80;;;;;;;;;;4913376;29;20044;-79
2022/11/08 16:08:00;;;;;;;11.18;9.75;;;;;;;;;;4911155;29;20582;-80
2022/11/08 16:10:37;;;;;;;14.52;12.65;;;;;;;;;;4918082;29;20044;-81
2022/11/08 16:13:03;;;;;;;7.88;7.18;;;;;;;;;;4904757;29;20104;-79
2022/11/08 16:15:30;;;;;;;11.82;6.72;;;;;;;;;;4895932;29;20047;-79
2022/11/08 16:17:57;;;;;;;17.88;14.15;;;;;;;;;;4910494;29;20125;-77
2022/11/08 16:20:29;;;;;;;11.02;9.65;;;;;;;;;;4910384;29;20469;-78
2022/11/08 16:22:55;;;;;;;10.60;9.15;;;;;;;;;;4911448;29;20118;-78
2022/11/08 16:25:21;;;;;;;12.70;10.65;;;;;;;;;;4910229;29;20052;-78
2022/11/08 16:27:49;;;;;;;9.50;7.95;;;;;;;;;;4900394;29;20048;-76
2022/11/08 16:30:15;;;;;;;13.05;9.98;;;;;;;;;;4916640;29;20048;-78
2022/11/08 16:32:41;;;;;;;11.90;10.40;;;;;;;;;;4916585;29;20382;-79
2022/11/08 16:35:07;;;;;;;6.18;5.57;;;;;;;;;;4912008;29;20051;-77
2022/11/08 16:37:33;;;;;;;11.73;9.77;;;;;;;;;;4915932;29;20028;-79
2022/11/08 16:39:59;;;;;;;9.18;7.80;;;;;;;;;;4928974;29;20058;-78
2022/11/08 16:42:24;;;;;;;13.43;9.18;;;;;;;;;;4934703;29;20036;-78
2022/11/08 16:44:50;;;;;;;7.93;7.15;;;;;;;;;;4932116;29;20103;-77
2022/11/08 16:47:17;;;;;;;12.95;9.63;;;;;;;;;;4929717;29;20095;-78
2022/11/08 16:49:43;;;;;;;5.97;5.30;;;;;;;;;;4930311;29;20116;-76
2022/11/08 16:52:12;;;;;;;18.80;11.57;;;;;;;;;;4932717;29;20043;-78
2022/11/08 16:54:39;;;;;;;10.02;8.85;;;;;;;;;;4932955;29;20628;-78
2022/11/08 16:57:05;;;;;;;10.07;8.32;;;;;;;;;;4934161;29;20028;-77
2022/11/08 16:59:31;;;;;;;13.55;9.82;;;;;;;;;;4936625;29;20040;-77
2022/11/08 17:01:57;;;;;;;8.60;5.78;;;;;;;;;;4917921;29;20394;-77
2022/11/08 17:04:23;;;;;;;12.93;9.88;;;;;;;;;;4913642;29;20456;-77
2022/11/08 17:06:49;;;;;;;12.75;10.23;;;;;;;;;;4912448;29;20032;-77
2022/11/08 17:09:14;;;;;;;13.02;11.00;;;;;;;;;;4915386;29;20395;-78
2022/11/08 17:11:41;;;;;;;12.27;10.45;;;;;;;;;;4917411;29;20056;-78
2022/11/08 17:14:08;;;;;;;13.73;9.98;;;;;;;;;;4923654;29;20160;-81
2022/11/08 17:16:34;;;;;;;7.65;5.90;;;;;;;;;;4927461;29;20043;-76
2022/11/08 17:19:00;;;;;;;14.80;9.73;;;;;;;;;;4898655;29;20032;-78
2022/11/08 17:21:25;;;;;;;10.63;8.52;;;;;;;;;;4912422;29;20040;-76
2022/11/08 17:23:51;;;;;;;16.17;10.52;;;;;;;;;;4913362;29;20569;-75
2022/11/08 17:26:17;;;;;;;12.57;10.10;;;;;;;;;;4928527;29;20078;-75
2022/11/08 17:28:43;;;;;;;11.68;10.10;;;;;;;;;;4912007;29;20090;-79
2022/11/08 17:31:10;;;;;;;11.82;8.50;;;;;;;;;;4896819;29;20048;-78
2022/11/08 17:33:36;;;;;;;8.93;7.10;;;;;;;;;;4912343;29;20036;-78
2022/11/08 17:36:09;;;;;;;15.02;9.00;;;;;;;;;;4897625;29;20036;-77
2022/11/08 17:38:35;;;;;;;18.48;11.40;;;;;;;;;;4910795;29;20028;-77
2022/11/08 17:41:02;;;;;;;15.63;8.85;;;;;;;;;;4911268;29;20043;-76
2022/11/08 17:43:28;;;;;;;17.27;10.77;;;;;;;;;;4920865;29;20040;-74
2022/11/08 17:45:54;;;;;;;15.38;9.93;;;;;;;;;;4895146;29;20587;-75
2022/11/08 17:48:19;;;;;;;23.55;11.85;;;;;;;;;;4926860;29;20554;-75
2022/11/08 17:50:46;;;;;;;26.33;12.68;;;;;;;;;;4912334;29;20071;-74
2022/11/08 17:53:12;;;;;;;25.48;12.40;;;;;;;;;;4912669;29;20543;-75
2022/11/08 17:55:38;;;;;;;10.85;7.57;;;;;;;;;;4907673;29;20044;-76
2022/11/08 17:58:03;;;;;;;21.08;11.75;;;;;;;;;;4911966;29;20446;-75
2022/11/08 18:00:29;;;;;;;20.88;12.63;;;;;;;;;;4910670;29;20039;-75
2022/11/08 18:02:55;;;;;;;22.52;13.38;;;;;;;;;;4911305;29;20040;-75
2022/11/08 18:05:21;;;;;;;21.20;11.93;;;;;;;;;;4911382;29;20587;-75
2022/11/08 18:07:47;;;;;;;31.00;12.88;;;;;;;;;;4905660;29;20131;-76
2022/11/08 18:10:15;;;;;;;22.85;12.10;;;;;;;;;;4909316;29;20473;-77
2022/11/08 18:12:41;;;;;;;32.05;16.75;;;;;;;;;;4907418;29;20408;-75
2022/11/08 18:15:07;;;;;;;19.90;11.27;;;;;;;;;;4911386;29;20051;-75
2022/11/08 18:17:33;;;;;;;22.52;11.68;;;;;;;;;;4907793;29;20036;-75
2022/11/08 18:19:59;;;;;;;26.75;13.15;;;;;;;;;;4907818;29;21066;-77
2022/11/08 18:22:25;;;;;;;23.67;13.82;;;;;;;;;;4909274;29;20044;-76
2022/11/08 18:24:51;;;;;;;31.60;15.80;;;;;;;;;;4907125;29;20071;-76
2022/11/08 18:27:17;;;;;;;31.67;15.45;;;;;;;;;;4911703;29;20102;-76
2022/11/08 18:29:43;;;;;;;22.98;12.88;;;;;;;;;;4912139;29;20032;-73
2022/11/08 18:32:09;;;;;;;29.13;14.68;;;;;;;;;;4911817;29;20032;-74
2022/11/08 18:34:35;;;;;;;22.45;12.30;;;;;;;;;;4910128;29;20031;-74
2022/11/08 18:37:01;;;;;;;23.05;13.25;;;;;;;;;;4910813;29;20039;-74
2022/11/08 18:39:27;;;;;;;20.48;11.75;;;;;;;;;;4911259;29;20040;-74
2022/11/08 18:41:52;;;;;;;23.48;13.18;;;;;;;;;;4910258;29;20028;-74
2022/11/08 18:44:18;;;;;;;32.95;16.90;;;;;;;;;;4909710;29;20044;-74
2022/11/08 18:46:44;;;;;;;23.95;11.95;;;;;;;;;;4894273;29;20047;-73
2022/11/08 18:49:10;;;;;;;24.10;13.45;;;;;;;;;;4911167;29;20123;-73
2022/11/08 18:51:36;;;;;;;32.22;15.30;;;;;;;;;;4911044;29;20036;-73
2022/11/08 18:54:03;;;;;;;14.45;8.73;;;;;;;;;;4909734;29;20028;-73
2022/11/08 18:56:28;;;;;;;23.35;13.57;;;;;;;;;;4909788;29;20032;-73
2022/11/08 18:58:54;;;;;;;28.85;14.18;;;;;;;;;;4911054;29;20051;-74
2022/11/08 19:01:20;;;;;;;28.40;16.00;;;;;;;;;;4910828;29;20078;-73
2022/11/08 19:03:46;;;;;;;21.52;13.07;;;;;;;;;;4910953;29;20028;-77
2022/11/08 19:06:12;;;;;;;30.48;16.40;;;;;;;;;;4910809;29;20040;-73
2022/11/08 19:08:38;;;;;;;49.80;23.35;;;;;;;;;;4911778;29;20040;-73